Terminal Aerodrome Forecast
Issued by NWS

Home | Current Version | Previous Version | Graphics & Text | Print | Product List | Glossary On
Versions: 1 2 3 4 5 6 7 8 9 10 11 12 13 14 15 16 17 18 19 20 21 22 23
520
FTUS43 KGRB 280353 CCB
TAFATW
TAF COR
KATW 280353Z 2804/2824 14007KT 6SM BR SCT006 OVC035
      TEMPO 2804/2806 1SM -SHRA BR BKN006
     FM280600 15006KT 4SM BR OVC025
     FM281300 18009KT 3SM BR OVC003
     FM281500 18010KT P6SM VCSH BKN003
     FM282000 19011KT P6SM VCSH BKN045=

USA.gov is the U.S. government's official web portal to all federal, state and local government web resources and services.